createdAt,value
2024-05-09T00:04:05.435Z,6.15
2024-05-09T00:09:08.029Z,5.15
2024-05-09T00:14:10.849Z,5.50
2024-05-09T00:19:13.507Z,5.13
2024-05-09T00:24:15.981Z,5.68
2024-05-09T00:29:18.503Z,5.15
2024-05-09T00:34:21.054Z,5.28
2024-05-09T00:39:23.411Z,5.20
2024-05-09T00:44:25.937Z,4.90
2024-05-09T00:49:29.141Z,5.10
2024-05-09T00:54:31.748Z,5.30
2024-05-09T00:59:34.597Z,4.28
2024-05-09T01:04:37.021Z,4.55
2024-05-09T01:09:39.424Z,5.53
2024-05-09T01:14:41.766Z,6.20
2024-05-09T01:19:44.625Z,7.30
2024-05-09T01:24:47.005Z,6.60
2024-05-09T01:29:49.387Z,7.00
2024-05-09T01:34:51.766Z,6.28
2024-05-09T01:39:54.128Z,6.85
2024-05-09T01:44:56.429Z,6.20
2024-05-09T01:49:58.810Z,6.15
2024-05-09T01:55:04.658Z,5.25
2024-05-09T02:00:10.338Z,6.25
2024-05-09T02:05:13.124Z,6.30
2024-05-09T02:10:20.482Z,6.43
2024-05-09T02:15:28.502Z,6.05
2024-05-09T02:20:36.186Z,6.53
2024-05-09T02:25:39.512Z,5.63
2024-05-09T02:30:42.657Z,5.90
2024-05-09T02:35:45.291Z,5.50
2024-05-09T02:40:47.757Z,5.72
2024-05-09T02:45:50.123Z,6.45
2024-05-09T02:50:52.510Z,6.70
2024-05-09T02:55:54.916Z,7.20
2024-05-09T03:00:57.287Z,6.30
2024-05-09T03:05:59.628Z,6.05
2024-05-09T03:11:02.017Z,6.20
2024-05-09T03:16:04.779Z,6.15
2024-05-09T03:21:07.554Z,6.55
2024-05-09T03:26:15.131Z,6.45
2024-05-09T03:31:19.251Z,5.78
2024-05-09T03:36:21.866Z,6.53
2024-05-09T03:41:24.300Z,6.40
2024-05-09T03:46:26.721Z,7.40
2024-05-09T03:51:29.196Z,8.00
2024-05-09T03:56:31.598Z,5.90
2024-05-09T04:01:34.114Z,7.50
2024-05-09T04:06:36.459Z,7.10
2024-05-09T04:11:38.893Z,8.07
2024-05-09T04:16:41.295Z,7.35
2024-05-09T04:21:43.643Z,7.70
2024-05-09T04:26:45.953Z,8.50
2024-05-09T04:31:48.326Z,9.07
2024-05-09T04:36:50.698Z,8.68
2024-05-09T04:41:53.013Z,7.70
2024-05-09T04:46:55.373Z,6.05
2024-05-09T04:51:57.735Z,4.40
2024-05-09T04:57:00.071Z,2.80
2024-05-09T05:02:02.593Z,3.47
2024-05-09T05:07:05.291Z,3.47
2024-05-09T05:12:28.285Z,3.83
2024-05-09T05:17:30.869Z,3.35
2024-05-09T05:22:33.383Z,3.40
2024-05-09T05:27:35.735Z,3.10
2024-05-09T05:32:38.224Z,3.30
2024-05-09T05:37:40.667Z,3.65
2024-05-09T05:42:43.362Z,3.05
2024-05-09T05:47:46.058Z,3.13
2024-05-09T05:52:48.643Z,2.53
2024-05-09T05:57:50.992Z,3.03
2024-05-09T06:02:53.486Z,2.97
2024-05-09T06:07:56.138Z,2.58
2024-05-09T06:12:58.525Z,3.08
2024-05-09T06:18:01.544Z,3.05
2024-05-09T06:23:04.883Z,3.35
2024-05-09T06:28:07.607Z,3.00
2024-05-09T06:33:14.455Z,3.13
2024-05-09T06:38:18.398Z,3.08
2024-05-09T06:43:20.993Z,3.13
2024-05-09T06:48:23.644Z,3.15
2024-05-09T06:53:26.161Z,3.15
2024-05-09T06:58:28.500Z,2.70
2024-05-09T07:03:31.835Z,3.08
2024-05-09T07:08:34.350Z,2.78
2024-05-09T07:13:36.757Z,2.83
2024-05-09T07:18:39.370Z,3.15
2024-05-09T07:23:43.727Z,3.03
2024-05-09T07:28:47.876Z,3.22
2024-05-09T07:33:50.358Z,2.63
2024-05-09T07:38:52.850Z,2.90
2024-05-09T07:43:55.303Z,3.70
2024-05-09T07:50:35.431Z,2.85
2024-05-09T07:54:20.484Z,2.47
2024-05-09T07:59:22.881Z,2.57
2024-05-09T08:04:26.574Z,2.60
2024-05-09T08:09:29.146Z,2.83
2024-05-09T08:14:31.807Z,2.13
2024-05-09T08:19:35.075Z,2.33
2024-05-09T08:24:37.919Z,2.33
2024-05-09T08:29:40.890Z,2.40
2024-05-09T08:34:43.394Z,2.17
2024-05-09T08:39:46.004Z,2.20
2024-05-09T08:44:49.678Z,2.17
2024-05-09T08:54:55.129Z,2.08
2024-05-09T09:00:04.827Z,1.85
2024-05-09T09:05:17.071Z,1.77
2024-05-09T09:10:29.904Z,1.83
2024-05-09T09:15:35.090Z,1.80
2024-05-09T09:20:37.657Z,1.77
2024-05-09T09:25:41.037Z,1.83
2024-05-09T09:30:43.846Z,1.60
2024-05-09T09:35:46.321Z,1.88
2024-05-09T09:40:50.227Z,1.85
2024-05-09T09:45:55.433Z,1.83
2024-05-09T09:50:58.194Z,2.22
2024-05-09T09:56:02.357Z,1.80
2024-05-09T10:01:05.144Z,1.67
2024-05-09T10:06:09.505Z,1.83
2024-05-09T10:11:12.199Z,1.73
2024-05-09T10:16:23.163Z,2.00
2024-05-09T10:21:27.297Z,1.80
2024-05-09T10:26:34.271Z,1.80
2024-05-09T10:31:41.319Z,1.95
2024-05-09T10:36:44.570Z,1.65
2024-05-09T10:41:47.411Z,1.60
2024-05-09T10:46:50.730Z,1.73
2024-05-09T10:51:53.470Z,1.90
2024-05-09T10:56:59.176Z,1.80
2024-05-09T11:02:10.710Z,1.75
2024-05-09T11:07:19.465Z,1.60
2024-05-09T11:12:24.713Z,1.90
2024-05-09T11:17:27.461Z,1.90
2024-05-09T11:22:36.036Z,1.57
2024-05-09T11:27:40.824Z,4.05
2024-05-09T11:32:43.472Z,1.55
2024-05-09T11:37:47.922Z,1.02
2024-05-09T11:42:53.010Z,1.50
2024-05-09T11:47:55.800Z,1.75
2024-05-09T11:52:58.216Z,1.47
2024-05-09T11:58:00.622Z,1.37
2024-05-09T12:03:04.782Z,1.70
2024-05-09T12:08:08.271Z,1.52
2024-05-09T12:13:10.868Z,1.50
2024-05-09T12:18:13.414Z,1.40
2024-05-09T12:23:15.933Z,1.60
2024-05-09T12:28:18.712Z,1.60
2024-05-09T12:33:21.762Z,1.52
2024-05-09T12:38:24.222Z,1.60
2024-05-09T12:43:26.795Z,1.50
2024-05-09T12:48:29.802Z,1.27
2024-05-09T12:53:32.280Z,1.33
2024-05-09T12:58:34.706Z,1.23
2024-05-09T13:03:37.353Z,1.50
2024-05-09T13:08:40.441Z,1.45
2024-05-09T13:18:45.647Z,1.50
2024-05-09T13:23:48.057Z,1.80
2024-05-09T13:28:50.431Z,1.60
2024-05-09T13:33:53.125Z,1.70
2024-05-09T13:38:56.587Z,1.80
2024-05-09T13:43:59.361Z,1.30
2024-05-09T13:49:03.434Z,1.85
2024-05-09T13:54:06.036Z,1.38
2024-05-09T13:59:08.958Z,1.70
2024-05-09T14:04:11.764Z,1.60
2024-05-09T14:09:14.347Z,1.42
2024-05-09T14:14:16.814Z,1.70
2024-05-09T14:19:19.482Z,1.43
2024-05-09T14:24:22.082Z,1.60
2024-05-09T14:29:24.445Z,1.40
2024-05-09T14:34:27.986Z,1.87
2024-05-09T14:39:30.553Z,1.25
2024-05-09T14:44:32.991Z,1.33
2024-05-09T14:49:35.506Z,1.40
2024-05-09T14:54:38.093Z,1.37
2024-05-09T14:59:40.663Z,1.48
2024-05-09T15:04:43.388Z,1.70
2024-05-09T15:09:47.086Z,1.38
2024-05-09T15:14:49.470Z,1.50
2024-05-09T15:19:52.151Z,1.43
2024-05-09T15:24:54.698Z,1.43
2024-05-09T15:29:57.092Z,1.40
2024-05-09T15:34:59.535Z,1.50
2024-05-09T15:40:02.591Z,1.30
2024-05-09T15:45:06.106Z,1.40
2024-05-09T15:50:17.087Z,1.40
2024-05-09T15:55:22.979Z,2.00
2024-05-09T16:00:36.462Z,1.33
2024-05-09T16:05:47.042Z,1.50
2024-05-09T16:10:50.451Z,1.27
2024-05-09T16:15:53.769Z,1.40
2024-05-09T16:21:00.408Z,1.30
2024-05-09T16:26:02.969Z,1.30
2024-05-09T16:31:05.617Z,1.17
2024-05-09T16:36:08.582Z,1.50
2024-05-09T16:41:11.221Z,1.48
2024-05-09T16:46:13.679Z,1.50
2024-05-09T16:51:16.190Z,1.55
2024-05-09T16:56:18.643Z,1.50
2024-05-09T17:01:21.246Z,1.60
2024-05-09T17:06:23.802Z,1.50
2024-05-09T17:11:26.337Z,1.40
2024-05-09T17:16:30.423Z,1.60
2024-05-09T17:21:32.974Z,1.42
2024-05-09T17:26:35.471Z,1.42
2024-05-09T17:31:37.993Z,1.50
2024-05-09T17:36:40.441Z,1.40
2024-05-09T17:41:44.151Z,1.25
2024-05-09T17:51:55.497Z,1.65
2024-05-09T17:56:58.521Z,1.75
2024-05-09T18:02:01.113Z,1.42
2024-05-09T18:07:03.804Z,1.33
2024-05-09T18:12:06.999Z,1.83
2024-05-09T18:17:10.660Z,1.30
2024-05-09T18:22:13.250Z,1.38
2024-05-09T18:27:15.679Z,1.40
2024-05-09T18:32:18.647Z,1.60
2024-05-09T18:37:21.202Z,1.63
2024-05-09T18:42:23.723Z,1.60
2024-05-09T18:47:26.416Z,1.60
2024-05-09T18:52:28.921Z,1.63
2024-05-09T18:57:32.708Z,2.03
2024-05-09T19:02:35.270Z,1.80
2024-05-09T19:07:37.989Z,1.65
2024-05-09T19:12:40.468Z,1.95
2024-05-09T19:17:42.975Z,1.70
2024-05-09T19:22:46.364Z,1.77
2024-05-09T19:27:48.780Z,1.90
2024-05-09T19:32:51.445Z,1.80
2024-05-09T19:37:53.929Z,2.10
2024-05-09T19:42:56.484Z,1.88
2024-05-09T19:47:59.357Z,2.13
2024-05-09T19:53:01.855Z,1.90
2024-05-09T19:58:07.299Z,2.80
2024-05-09T20:03:12.448Z,2.42
2024-05-09T20:08:15.495Z,2.50
2024-05-09T20:13:18.005Z,2.70
2024-05-09T20:18:20.736Z,2.40
2024-05-09T20:23:23.333Z,2.13
2024-05-09T20:28:26.082Z,2.42
2024-05-09T20:33:29.656Z,2.28
2024-05-09T20:38:32.166Z,2.60
2024-05-09T20:43:34.603Z,2.30
2024-05-09T20:48:37.138Z,2.13
2024-05-09T20:53:39.578Z,2.22
2024-05-09T20:58:42.167Z,2.50
2024-05-09T21:03:44.812Z,2.25
2024-05-09T21:08:47.181Z,2.80
2024-05-09T21:13:51.612Z,2.35
2024-05-09T21:18:53.970Z,2.95
2024-05-09T21:23:56.368Z,2.45
2024-05-09T21:28:58.670Z,2.70
2024-05-09T21:34:01.464Z,2.40
2024-05-09T21:39:04.154Z,2.30
2024-05-09T21:44:07.031Z,2.40
2024-05-09T21:49:09.530Z,2.42
2024-05-09T21:54:12.079Z,2.45
2024-05-09T21:59:14.564Z,2.75
2024-05-09T22:04:17.370Z,2.58
2024-05-09T22:09:20.144Z,2.20
2024-05-09T22:14:22.817Z,2.33
2024-05-09T22:19:25.700Z,2.28
2024-05-09T22:24:28.103Z,1.80
2024-05-09T22:29:30.497Z,1.90
2024-05-09T22:34:32.818Z,2.38
2024-05-09T22:39:35.198Z,2.08
2024-05-09T22:44:37.637Z,2.15
2024-05-09T22:49:39.978Z,1.98
2024-05-09T22:54:42.441Z,2.28
2024-05-09T22:59:45.056Z,2.75
2024-05-09T23:04:48.038Z,2.20
2024-05-09T23:09:50.575Z,2.47
2024-05-09T23:14:52.954Z,2.40
2024-05-09T23:19:55.439Z,2.65
2024-05-09T23:24:57.997Z,3.33
2024-05-09T23:30:00.404Z,3.15
2024-05-09T23:35:02.848Z,2.80
2024-05-09T23:40:07.269Z,2.70
2024-05-09T23:45:12.069Z,2.50
2024-05-09T23:50:20.502Z,2.78
2024-05-09T23:55:26.666Z,2.65
